FUK weather

Fukuoka Airport
Fukuoka, Fukuoka Prefecture, Japan

Public forecast

Using degrees Celsius for public forecast. Weather courtesy of forecast.io.

METAR (pilot weather report)

Retrieved 2019/03/20 03:00 UTC (17 minutes ago):

RJFF 200300Z 14017KT CAVOK 21/03 Q1014 NOSIG RMK A2996

TAF (pilot weather forecast)

Forecast is more than 12 hours old.

Retrieved 2019/03/19 00:00 UTC (1 day ago):

TAF RJFF 192307Z 2000/2106 16011KT 9999 FEW030 BECMG 2012/2015 16022KT TEMPO 2012/2018 15022G32KT TEMPO 2018/2021 16022G32KT 4000 -TSRA BR FEW010 SCT015 BKN025 FEW025CB BECMG 2021/2100 20005KT BECMG 2100/2103 29013KT